Página principal
METAR-TAF:

METAR-TAF

Aeroportos :

Kariba, Zimbabwe

latitude: 16-31S, longitude: 028-53E, altura: 518 m

Observação actual do tempo

O boletim foi feito há 2 horas e 41 minutos, às 06:00 UTC
Vento calmo
Temperatura 23°C
Humidade 78%
Pressão 1020 hPa
Visibilidade 10 km ou mais
sem nuvens abaixo de 1500 metros e sem cumulonimbus

METAR: FVKB 140600Z 00000KT CAVOK 23/19 Q1020 NOSIG

Hora: 10:41 (08:41 UTC)


TAF: em falta

Observações e previsões do tempo de mais de 4000 aeroportos (mensagens METAR e TAF).

As estações disponíveis são os pontos amarelos e vermelhos sobre o mapa.

Mova o rato sobre o mapa para ver o nome da estação.

Depois clique no ponto para visualizar as observações e previsões meteorológicas.

Para alterar o mapa : clique nos botões verdes com uma cruz preta para aumentar o zoom; no botão verde com uma pitada de zoom; ou nas setas verdes para mapas adjacentes.


METAR-TAF: